Ana Sayfa
METAR-TAF:

METAR-TAF

Havaalanları :

Peterborough, Ontario, Kanada

Enlem: 44-14N, Boylam: 078-22W, yükseklik: 191 m

Güncel hava durumu gözlemi

Rapor saat 10:00 UTC de 10 dakika önce yapıldı.
Rüzgar kuzeydoğudan 4 kt
Sıcaklık 1°C
Nem 80%
Basınç 1013 hPa
Görüş mesafesi: 14.5 km
5500 ft yükseklikte çok bulutlu

METAR: CYPQ 251000Z AUTO 04004KT 9SM OVC055 01/M02 A2992 RMK SLP139

Saat: 05:10 (10:10 UTC)

Tahmin

Rapor saat 19:38 UTC de 14 saat ve 32 dakika önce yapıldı.
Ayın 24'si saat 20 UTC'den ayın 25'si saat 03 UTC'ye kadar geçerli Tahmin
Rüzgar batıdan 10 kt
Görüş mesafesi: 10 km
20000 ft yükseklikte parçalı çok bulutlu
Dönüşüyor
ayın 24'si saat 21 UTC'den ayın 24'si saat 23 UTC'ye kadar
Rüzgar batı/kuzeybatıdan 5 kt

TAF: CYPQ 241938Z 2420/2503 28010KT P6SM BKN200 BECMG 2421/2423 29005KT RMK FCST BASED ON AUTO OBS. NXT FCST WILL BE ISSUED AT 251045Z

4.000'den fazla havaalanı için hava durumu gözlemleri ve tahminleri (METAR ve TAF raporları).

Kullanılabilir istasyonlar harita üzerinde sarı ve kırmızı noktalarla gösterilir.

İstasyonun adını görmek için fareyi noktanın üzerinde gezdirin.

Sonrasında hava gözlem ve tahminlerini görmek için tıklayın.

Haritayı değiştirmek için: yaklaştırmak için siyah artı işaretli yeşil düğmeye ve uzaklaştırmak için de eksi işaretli düğmeye hızla tıklayın; bitişik haritalar için yeşil okları kullanın.


METAR-TAF: